Terminal Aerodrome Forecast
Issued by NWS Jacksonville, FL

Home | Current Version | Previous Version | Text Only | Print | Product List | Glossary On
Versions: 1 2 3 4 5 6 7 8 9 10 11 12 13 14 15 16 17 18 19 20 21 22 23 24 25 26 27 28 29 30 31 32 33
000
FTUS42 KJAX 021601 AAC
TAFGNV
TAF AMD
KGNV 021601Z 0216/0312 19012G22KT P6SM -SHRA BKN012 OVC035
      TEMPO 0216/0218 2SM -SHRA BR OVC012
     FM021900 21015G25KT P6SM VCTS BKN035CB
      TEMPO 0219/0223 3SM -TSRA BR BKN025CB
     FM030200 22010KT P6SM SCT020 BKN040=

USA.gov is the U.S. government's official web portal to all federal, state and local government web resources and services.